PST,Max TemperatureF,Mean TemperatureF,Min TemperatureF,Max Dew PointF,MeanDew PointF,Min DewpointF,Max Humidity, Mean Humidity, Min Humidity, Max Sea Level PressureIn, Mean Sea Level PressureIn, Min Sea Level PressureIn, Max VisibilityMiles, Mean VisibilityMiles, Min VisibilityMiles, Max Wind SpeedMPH, Mean Wind SpeedMPH, Max Gust SpeedMPH,PrecipitationIn, CloudCover, Events, WindDirDegrees
2013-1-1,58,49,39,37,34,32,85,62,39,30.28,30.25,30.19,10,10,10,14,5,39,0.00,2,,65
2013-1-2,66,51,36,36,30,24,70,46,22,30.24,30.20,30.14,10,10,10,13,3,16,0.00,0,,89
2013-1-3,60,48,36,43,34,25,89,68,47,30.28,30.23,30.18,10,10,10,10,3,12,0.00,0,,100
2013-1-4,60,48,35,46,37,31,89,68,47,30.29,30.26,30.22,10,10,10,9,2,10,0.00,0,,89
2013-1-5,58,50,42,49,44,35,96,72,47,30.31,30.22,30.12,10,8,2,17,5,24,0.16,6,,112
2013-1-6,52,47,41,45,43,38,93,80,66,30.24,30.17,30.06,10,9,4,18,6,26,0.34,6,Rain,169
2013-1-7,54,47,40,46,42,38,93,82,71,30.28,30.23,30.20,10,10,10,12,4,37,0.00,0,,103
2013-1-8,64,54,43,49,44,41,92,74,55,30.25,30.19,30.16,10,10,9,12,3,15,0.00,0,,73
2013-1-9,54,48,42,49,45,37,100,86,71,30.17,30.11,30.05,10,9,1,21,6,29,0.07,6,Rain,250
2013-1-10,50,45,39,40,37,34,92,72,52,30.25,30.18,30.14,10,10,8,22,10,30,0.05,4,Rain,290
2013-1-11,52,45,38,43,38,32,89,72,54,30.31,30.22,30.15,10,10,6,17,7,25,0.02,5,,281
2013-1-12,50,42,34,41,33,23,100,67,33,30.30,30.22,30.18,10,10,10,9,4,10,0.00,1,,72
2013-1-13,49,41,32,33,26,18,82,56,29,30.30,30.24,30.20,10,10,10,12,4,28,0.00,0,,76
2013-1-14,53,43,32,24,20,16,61,43,24,30.45,30.38,30.27,10,10,10,12,6,17,0.00,0,,69
2013-1-15,56,45,33,34,26,21,76,51,26,30.51,30.46,30.43,10,10,10,9,4,10,0.00,0,,82
2013-1-16,59,47,34,41,32,28,82,58,33,30.45,30.36,30.27,10,10,10,8,3,8,0.00,0,,72
2013-1-17,70,52,33,40,35,30,89,59,28,30.26,30.20,30.15,10,10,10,6,2,7,0.00,0,,96
2013-1-18,68,53,38,36,32,28,79,53,26,30.23,30.18,30.16,10,10,10,9,3,10,0.00,0,,90
2013-1-19,70,55,40,38,30,26,70,45,20,30.24,30.19,30.17,10,10,10,10,3,12,0.00,0,,98
2013-1-20,77,60,43,38,28,19,58,36,13,30.22,30.17,30.11,10,10,10,13,5,15,0.00,0,,91
2013-1-21,71,55,39,37,29,19,62,41,20,30.18,30.13,30.08,10,10,10,10,3,12,0.00,0,,75
2013-1-22,64,54,44,40,31,21,54,43,32,30.13,30.08,30.04,10,10,10,13,4,17,0.00,0,,89
2013-1-23,64,57,49,48,40,33,93,70,46,30.12,30.06,30.01,10,10,5,14,3,28,0.04,5,Rain,103
2013-1-24,57,54,50,54,51,46,100,89,77,30.22,30.15,30.09,10,8,4,15,1,48,0.12,8,Rain,173
2013-1-25,65,58,50,55,52,50,100,86,72,30.22,30.14,30.05,10,8,5,14,3,17,0.01,4,,74
2013-1-26,55,53,50,52,46,41,100,81,61,30.16,30.09,30.02,10,10,5,18,8,23,0.00,6,,265
2013-1-27,54,51,48,43,40,37,77,68,59,30.23,30.17,30.11,10,10,9,18,11,25,0.00,5,,282
2013-1-28,54,47,40,45,41,36,85,76,66,30.35,30.27,30.19,10,10,10,17,9,25,0.00,3,,276
2013-1-29,54,48,41,46,43,39,93,81,68,30.40,30.34,30.28,10,10,8,13,5,16,0.00,2,,214
2013-1-30,58,49,40,47,42,37,86,74,62,30.40,30.33,30.31,10,10,9,9,3,10,0.00,0,,28
2013-1-31,64,52,40,48,41,35,89,69,48,30.31,30.25,30.20,10,10,10,8,3,25,0.00,0,,97